Time;durP1;ratioP1;P1;durP2;ratioP2;P2;SDS_P1;SDS_P2;PMS_P1;PMS_P2;Temp;Humidity;BMP_temperature;BMP_pressure;BME280_temperature;BME280_humidity;BME280_pressure;Samples;Min_cycle;Max_cycle;Signal;HPM_P1;HPM_P2
2021/11/05 00:01:00;;;;;;;1.80;1.70;;;;;;;7.62;85.42;98574.75;4915546;28;102592;-65
2021/11/05 00:03:29;;;;;;;2.60;2.40;;;;;;;7.66;86.08;98585.94;4939507;28;102693;-64
2021/11/05 00:05:57;;;;;;;2.13;2.00;;;;;;;7.62;86.04;98579.16;4941851;28;103328;-64
2021/11/05 00:08:25;;;;;;;4.87;2.70;;;;;;;7.69;86.42;98580.50;4939552;28;103216;-65
2021/11/05 00:10:57;;;;;;;3.30;3.00;;;;;;;7.67;86.79;98587.59;4940102;28;102675;-65
2021/11/05 00:13:25;;;;;;;1.97;1.77;;;;;;;7.69;87.35;98583.13;4940067;28;103958;-64
2021/11/05 00:15:56;;;;;;;2.40;2.10;;;;;;;7.69;87.59;98588.38;4922320;28;103468;-64
2021/11/05 00:18:24;;;;;;;2.10;2.00;;;;;;;7.68;87.75;98586.69;4939417;28;103402;-64
2021/11/05 00:20:52;;;;;;;2.10;1.90;;;;;;;7.65;87.94;98579.81;4940639;28;102701;-64
2021/11/05 00:23:20;;;;;;;2.93;2.73;;;;;;;7.61;89.29;98580.13;4941494;28;103257;-64
2021/11/05 00:25:48;;;;;;;2.67;1.90;;;;;;;7.65;89.03;98585.09;4940961;28;103363;-64
2021/11/05 00:28:17;;;;;;;2.67;1.90;;;;;;;7.67;89.14;98585.81;4937877;28;103145;-65
2021/11/05 00:30:45;;;;;;;2.07;1.97;;;;;;;7.68;88.94;98589.31;4938228;28;103347;-64
2021/11/05 00:33:13;;;;;;;2.00;1.80;;;;;;;7.63;89.53;98594.00;4940322;28;102690;-64
2021/11/05 00:35:41;;;;;;;2.80;2.60;;;;;;;7.62;90.11;98587.91;4939018;28;102951;-64
2021/11/05 00:38:09;;;;;;;1.83;1.70;;;;;;;7.69;90.42;98591.81;4937231;28;103310;-64
2021/11/05 00:40:38;;;;;;;3.37;2.20;;;;;;;7.71;90.62;98594.38;4944999;28;102570;-63
2021/11/05 00:43:06;;;;;;;2.17;2.00;;;;;;;7.69;91.47;98598.91;4943910;28;102900;-64
2021/11/05 00:45:35;;;;;;;2.50;2.10;;;;;;;7.71;91.81;98599.63;4944348;28;103945;-64
2021/11/05 00:48:03;;;;;;;3.07;2.87;;;;;;;7.70;91.66;98596.16;4943210;28;103245;-65
2021/11/05 00:50:32;;;;;;;2.50;2.30;;;;;;;7.67;91.84;98598.13;4943413;28;102803;-65
2021/11/05 00:53:00;;;;;;;2.13;1.97;;;;;;;7.58;92.61;98603.00;4944967;28;102737;-65
2021/11/05 00:55:28;;;;;;;2.00;1.80;;;;;;;7.66;92.91;98601.72;4941999;28;103225;-65
2021/11/05 00:57:56;;;;;;;2.00;1.90;;;;;;;7.72;92.26;98609.22;4944203;28;103211;-65
2021/11/05 01:00:24;;;;;;;3.20;2.40;;;;;;;7.69;91.78;98607.59;4941756;28;102611;-65
2021/11/05 01:02:53;;;;;;;1.93;1.83;;;;;;;7.73;92.55;98605.63;4942995;28;102579;-65
2021/11/05 01:05:21;;;;;;;2.20;1.87;;;;;;;7.62;93.31;98610.72;4944400;28;103209;-65
2021/11/05 01:07:49;;;;;;;2.27;1.80;;;;;;;7.65;93.45;98613.16;4944007;28;103294;-65
2021/11/05 01:10:19;;;;;;;2.70;2.50;;;;;;;7.65;93.61;98610.53;4943293;28;102650;-66
2021/11/05 01:12:47;;;;;;;2.70;2.50;;;;;;;7.61;93.98;98616.94;4943144;28;102876;-65
2021/11/05 01:15:15;;;;;;;2.80;2.60;;;;;;;7.50;95.33;98618.41;4926138;28;103305;-64
2021/11/05 01:17:47;;;;;;;3.30;2.90;;;;;;;7.50;95.58;98621.03;4941642;28;103252;-64
2021/11/05 01:20:18;;;;;;;3.93;3.57;;;;;;;7.51;95.38;98620.13;4943549;28;102857;-65
2021/11/05 01:22:48;;;;;;;2.80;2.50;;;;;;;7.61;95.13;98628.28;4944031;28;103776;-65
2021/11/05 01:25:18;;;;;;;2.37;2.17;;;;;;;7.64;95.09;98628.09;4940633;28;104214;-64
2021/11/05 01:27:48;;;;;;;3.10;2.53;;;;;;;7.66;94.88;98634.13;4944066;28;103232;-64
2021/11/05 01:30:17;;;;;;;2.50;2.30;;;;;;;7.64;95.42;98632.50;4943186;28;102653;-64
2021/11/05 01:32:46;;;;;;;3.27;2.97;;;;;;;7.58;95.36;98634.56;4943375;28;103722;-64
2021/11/05 01:35:16;;;;;;;2.67;2.47;;;;;;;7.49;95.52;98636.94;4942702;28;103296;-65
2021/11/05 01:37:45;;;;;;;2.50;2.30;;;;;;;7.55;96.00;98640.00;4942295;28;103244;-64
2021/11/05 01:40:14;;;;;;;2.40;2.20;;;;;;;7.56;95.44;98635.59;4943677;28;102665;-64
2021/11/05 01:42:44;;;;;;;2.47;2.27;;;;;;;7.58;95.26;98642.44;4943137;28;102596;-65
2021/11/05 01:45:13;;;;;;;3.03;2.67;;;;;;;7.51;95.01;98635.91;4943412;28;103261;-65
2021/11/05 01:47:41;;;;;;;4.60;3.27;;;;;;;7.51;94.92;98638.53;4942481;28;103229;-64
2021/11/05 01:50:11;;;;;;;3.30;3.10;;;;;;;7.34;95.22;98646.56;4955670;28;102673;-65
2021/11/05 01:52:41;;;;;;;2.70;2.50;;;;;;;7.44;95.77;98639.81;4943369;28;102720;-65
2021/11/05 01:55:11;;;;;;;2.33;2.13;;;;;;;7.49;96.03;98643.00;4953765;28;103760;-65
2021/11/05 01:57:39;;;;;;;2.40;2.17;;;;;;;7.53;95.98;98644.53;4942975;28;103219;-65
2021/11/05 02:00:09;;;;;;;3.17;2.83;;;;;;;7.46;96.37;98643.22;4942102;28;102685;-65
2021/11/05 02:02:39;;;;;;;2.13;1.90;;;;;;;7.47;96.69;98644.88;4932768;28;103188;-65
2021/11/05 02:05:10;;;;;;;3.10;2.80;;;;;;;7.45;96.63;98651.19;4942888;28;104155;-66
2021/11/05 02:07:44;;;;;;;3.17;2.90;;;;;;;7.43;96.98;98651.28;4944360;28;103039;-65
2021/11/05 02:10:13;;;;;;;2.30;2.10;;;;;;;7.48;97.01;98646.59;4942423;28;102614;-65
2021/11/05 02:12:42;;;;;;;2.70;2.30;;;;;;;7.48;96.96;98651.84;4942986;28;102808;-64
2021/11/05 02:15:10;;;;;;;2.03;1.83;;;;;;;7.50;97.01;98651.75;4942432;28;103358;-65
2021/11/05 02:17:39;;;;;;;2.53;2.17;;;;;;;7.54;97.18;98651.47;4942876;28;103285;-64
2021/11/05 02:20:09;;;;;;;2.67;2.33;;;;;;;7.56;97.50;98654.84;4940145;28;102676;-64
2021/11/05 02:22:39;;;;;;;2.83;2.53;;;;;;;7.57;97.64;98651.31;4942763;28;104081;-65
2021/11/05 02:25:09;;;;;;;2.97;2.27;;;;;;;7.58;97.65;98647.72;4938688;28;103221;-64
2021/11/05 02:27:38;;;;;;;2.17;2.00;;;;;;;7.62;97.79;98652.78;4941054;28;104262;-65
2021/11/05 02:30:10;;;;;;;2.60;2.40;;;;;;;7.64;97.67;98650.91;4942518;28;103066;-64
2021/11/05 02:32:41;;;;;;;3.07;2.77;;;;;;;7.64;97.72;98658.78;4941895;28;104068;-65
2021/11/05 02:35:11;;;;;;;3.23;3.03;;;;;;;7.58;96.96;98650.34;4941442;28;104029;-65
2021/11/05 02:37:42;;;;;;;3.37;2.30;;;;;;;7.57;97.01;98656.56;4942076;28;103364;-65
2021/11/05 02:40:11;;;;;;;2.07;1.97;;;;;;;7.54;97.50;98662.00;4941814;28;102600;-64
2021/11/05 02:42:42;;;;;;;2.77;2.33;;;;;;;7.48;96.95;98667.63;4941324;28;102692;-63
2021/11/05 02:45:11;;;;;;;3.47;3.17;;;;;;;7.51;96.61;98662.19;4939162;28;103236;-63
2021/11/05 02:47:41;;;;;;;2.93;2.50;;;;;;;7.51;96.18;98667.44;4941330;28;103249;-64
2021/11/05 02:50:12;;;;;;;2.60;2.40;;;;;;;7.53;96.24;98672.59;4940703;28;102645;-65
2021/11/05 02:52:42;;;;;;;2.43;2.23;;;;;;;7.56;96.29;98665.38;4942782;28;102892;-65
2021/11/05 02:55:11;;;;;;;2.63;2.00;;;;;;;7.58;95.85;98679.25;4941791;28;103364;-64
2021/11/05 02:57:40;;;;;;;2.47;2.10;;;;;;;7.60;95.50;98681.81;4924233;28;105132;-64
2021/11/05 03:00:10;;;;;;;2.30;2.20;;;;;;;7.51;96.01;98683.22;4941453;28;102636;-64
2021/11/05 03:02:43;;;;;;;2.30;2.10;;;;;;;7.55;96.61;98683.88;4935065;28;102825;-64
2021/11/05 03:05:12;;;;;;;3.33;3.03;;;;;;;7.54;96.57;98690.06;4922225;28;104275;-65
2021/11/05 03:07:40;;;;;;;3.53;3.10;;;;;;;7.33;97.53;98693.97;4925973;28;103382;-64
2021/11/05 03:10:15;;;;;;;2.70;2.50;;;;;;;7.36;98.63;98694.63;4955063;28;102783;-63
2021/11/05 03:12:44;;;;;;;2.10;1.90;;;;;;;7.42;98.51;98694.28;4941603;28;102871;-64
2021/11/05 03:15:13;;;;;;;2.20;2.00;;;;;;;7.48;98.14;98704.44;4942316;28;103671;-64
2021/11/05 03:17:43;;;;;;;2.00;1.90;;;;;;;7.51;97.87;98704.25;4941450;28;103265;-65
2021/11/05 03:20:13;;;;;;;2.07;1.97;;;;;;;7.56;98.02;98701.31;4940235;28;102954;-64
2021/11/05 03:22:41;;;;;;;2.30;2.10;;;;;;;7.60;97.96;98713.38;4940967;28;102833;-65
2021/11/05 03:25:10;;;;;;;2.07;1.87;;;;;;;7.63;97.54;98701.81;4941631;28;103679;-64
2021/11/05 03:27:39;;;;;;;2.80;2.60;;;;;;;7.65;97.29;98706.03;4941966;28;103214;-64
2021/11/05 03:30:10;;;;;;;3.20;2.90;;;;;;;7.63;97.03;98712.34;4940141;28;102646;-65
2021/11/05 03:32:38;;;;;;;3.67;3.33;;;;;;;7.58;97.06;98718.69;4941924;28;103787;-65
2021/11/05 03:35:11;;;;;;;2.90;2.70;;;;;;;7.56;97.42;98725.84;4940508;28;103169;-65
2021/11/05 03:37:40;;;;;;;5.20;3.90;;;;;;;7.54;97.66;98722.47;4939831;28;103234;-65
2021/11/05 03:40:10;;;;;;;2.93;2.73;;;;;;;7.40;98.12;98727.69;4942342;28;102653;-65
2021/11/05 03:42:40;;;;;;;3.87;3.50;;;;;;;7.40;99.02;98732.94;4941160;28;102696;-65
2021/11/05 03:45:09;;;;;;;3.60;3.30;;;;;;;7.31;99.20;98738.75;4939490;28;103274;-64
2021/11/05 03:47:37;;;;;;;4.17;3.87;;;;;;;7.26;99.17;98734.69;4954801;28;104263;-62
2021/11/05 03:50:06;;;;;;;3.67;3.37;;;;;;;7.31;99.55;98738.75;4941001;28;102671;-63
2021/11/05 03:52:34;;;;;;;2.93;2.73;;;;;;;7.36;99.49;98744.56;4922742;28;102885;-63
2021/11/05 03:55:06;;;;;;;2.70;2.50;;;;;;;7.43;99.30;98747.69;4938256;28;103649;-63
2021/11/05 03:57:34;;;;;;;2.93;2.73;;;;;;;7.41;99.15;98755.66;4937101;28;103247;-63
2021/11/05 04:00:05;;;;;;;3.77;3.47;;;;;;;7.40;99.23;98755.75;4940440;28;102754;-63
2021/11/05 04:02:33;;;;;;;2.80;2.60;;;;;;;7.42;99.24;98756.50;4939073;28;102840;-63
2021/11/05 04:05:01;;;;;;;2.63;2.43;;;;;;;7.39;99.47;98757.53;4941683;28;103228;-63
2021/11/05 04:07:29;;;;;;;3.37;3.07;;;;;;;7.44;99.66;98755.47;4939657;28;103202;-63
2021/11/05 04:10:00;;;;;;;2.50;2.30;;;;;;;7.45;99.32;98762.44;4939002;28;102719;-64
2021/11/05 04:12:28;;;;;;;2.40;2.20;;;;;;;7.48;99.36;98762.25;4941983;28;102679;-63
2021/11/05 04:14:58;;;;;;;2.47;2.27;;;;;;;7.50;99.13;98772.66;4942792;28;103043;-63
2021/11/05 04:17:28;;;;;;;2.63;1.90;;;;;;;7.49;98.71;98777.06;4942638;28;103315;-63
2021/11/05 04:19:59;;;;;;;2.30;2.10;;;;;;;7.49;98.30;98787.59;4943009;28;102704;-64
2021/11/05 04:22:27;;;;;;;3.03;2.83;;;;;;;7.47;98.41;98781.59;4944575;28;102768;-64
2021/11/05 04:24:55;;;;;;;5.03;4.63;;;;;;;7.46;98.54;98782.53;4944624;28;103903;-64
2021/11/05 04:27:23;;;;;;;5.10;3.77;;;;;;;7.49;99.73;98784.97;4924829;28;103240;-64
2021/11/05 04:29:51;;;;;;;3.97;3.57;;;;;;;7.47;100.00;98792.09;4943658;28;102656;-65
2021/11/05 04:32:19;;;;;;;3.67;3.37;;;;;;;7.48;100.00;98788.53;4944368;28;102671;-64
2021/11/05 04:34:48;;;;;;;3.57;3.27;;;;;;;7.48;100.00;98783.28;4943323;28;103279;-64
2021/11/05 04:37:16;;;;;;;2.80;2.60;;;;;;;7.52;100.00;98795.31;4944087;28;103249;-64
2021/11/05 04:39:44;;;;;;;4.10;3.80;;;;;;;7.50;100.00;98796.34;4924078;28;103604;-65
2021/11/05 04:42:12;;;;;;;4.10;3.70;;;;;;;7.48;100.00;98793.81;4943640;28;102708;-64
2021/11/05 04:44:41;;;;;;;4.20;3.70;;;;;;;7.43;100.00;98805.53;4941410;28;103307;-64
2021/11/05 04:47:09;;;;;;;2.73;2.53;;;;;;;7.48;100.00;98804.31;4941747;28;103146;-64
2021/11/05 04:49:38;;;;;;;2.93;2.73;;;;;;;7.54;100.00;98803.97;4935260;28;104595;-64
2021/11/05 04:52:08;;;;;;;4.10;3.80;;;;;;;7.43;100.00;98816.91;4934987;28;103213;-64
2021/11/05 04:54:36;;;;;;;3.30;2.53;;;;;;;7.44;100.00;98813.31;4936988;28;103833;-63
2021/11/05 04:57:04;;;;;;;3.27;2.97;;;;;;;7.48;100.00;98809.56;4942872;28;103016;-62
2021/11/05 04:59:33;;;;;;;3.77;3.43;;;;;;;7.44;100.00;98813.31;4939571;28;102713;-62
2021/11/05 05:02:02;;;;;;;4.73;3.10;;;;;;;7.42;100.00;98815.19;4940020;28;103934;-61
2021/11/05 05:04:30;;;;;;;2.57;2.37;;;;;;;7.48;100.00;98817.47;4937889;28;103958;-61
2021/11/05 05:06:58;;;;;;;4.47;4.07;;;;;;;7.32;100.00;98821.91;4936339;28;104293;-61
2021/11/05 05:09:27;;;;;;;5.43;4.40;;;;;;;7.38;100.00;98820.72;4939662;28;102637;-61
2021/11/05 05:11:56;;;;;;;4.77;3.00;;;;;;;7.34;100.00;98825.28;4939353;28;104031;-62
2021/11/05 05:14:24;;;;;;;2.70;2.50;;;;;;;7.39;99.87;98825.03;4939641;28;103952;-62
2021/11/05 05:16:52;;;;;;;2.70;2.50;;;;;;;7.43;98.80;98821.28;4940109;28;103247;-62
2021/11/05 05:19:20;;;;;;;2.50;2.30;;;;;;;7.43;98.76;98827.41;4938857;28;102813;-62
2021/11/05 05:21:48;;;;;;;2.30;2.10;;;;;;;7.42;98.49;98830.97;4940000;28;103931;-62
2021/11/05 05:24:20;;;;;;;1.80;1.70;;;;;;;7.45;97.98;98829.94;4939192;28;103836;-62
2021/11/05 05:26:49;;;;;;;2.37;2.17;;;;;;;7.47;97.71;98834.16;4941265;28;103205;-62
2021/11/05 05:29:17;;;;;;;2.00;1.80;;;;;;;7.51;97.86;98833.06;4939809;28;103135;-62
2021/11/05 05:31:45;;;;;;;1.70;1.60;;;;;;;7.50;97.66;98839.25;4938434;28;104507;-62
2021/11/05 05:34:13;;;;;;;2.40;2.20;;;;;;;7.46;97.75;98840.38;4935044;28;103400;-62
2021/11/05 05:36:41;;;;;;;2.13;1.80;;;;;;;7.46;98.27;98848.25;4932146;28;103199;-62
2021/11/05 05:39:09;;;;;;;2.80;2.50;;;;;;;7.36;98.47;98846.22;4932969;28;102666;-64
2021/11/05 05:41:37;;;;;;;3.20;2.90;;;;;;;7.40;99.08;98848.59;4938321;28;102831;-61
2021/11/05 05:44:10;;;;;;;1.90;1.80;;;;;;;7.41;99.43;98850.28;4932214;28;104030;-64
2021/11/05 05:46:38;;;;;;;2.07;1.97;;;;;;;7.46;99.08;98853.53;4933147;28;103418;-64
2021/11/05 05:49:06;;;;;;;2.07;1.97;;;;;;;7.41;99.34;98855.53;4935188;28;102707;-62
2021/11/05 05:51:34;;;;;;;1.83;1.73;;;;;;;7.47;99.78;98857.81;4933005;28;104224;-62
2021/11/05 05:54:02;;;;;;;2.83;1.90;;;;;;;7.48;99.34;98867.41;4932474;28;103432;-64
2021/11/05 05:56:30;;;;;;;2.40;2.20;;;;;;;7.16;100.00;98876.25;4938196;28;103359;-64
2021/11/05 05:58:58;;;;;;;2.73;2.53;;;;;;;7.00;100.00;98880.66;4934964;28;103828;-62
2021/11/05 06:01:30;;;;;;;1.60;1.50;;;;;;;7.22;100.00;98881.16;4932342;28;102663;-62
2021/11/05 06:04:00;;;;;;;1.43;1.30;;;;;;;7.25;100.00;98888.88;4932187;28;104832;-62
2021/11/05 06:06:28;;;;;;;2.33;2.13;;;;;;;7.16;100.00;98892.00;4937355;28;103247;-62
2021/11/05 06:08:57;;;;;;;2.23;2.13;;;;;;;7.18;100.00;98891.94;4932748;28;103164;-64
2021/11/05 06:11:27;;;;;;;2.57;1.90;;;;;;;7.03;100.00;98901.53;4933480;28;102721;-64
2021/11/05 06:13:58;;;;;;;2.53;2.33;;;;;;;7.14;100.00;98904.41;4939143;28;104101;-62
2021/11/05 06:16:26;;;;;;;3.10;2.63;;;;;;;7.05;100.00;98904.91;4940875;28;103336;-63
2021/11/05 06:18:55;;;;;;;2.07;1.97;;;;;;;6.87;100.00;98908.53;4938038;28;102645;-62
2021/11/05 06:21:25;;;;;;;1.70;1.60;;;;;;;7.13;100.00;98907.13;4939380;28;102699;-62
2021/11/05 06:23:54;;;;;;;2.47;2.27;;;;;;;7.24;100.00;98910.84;4938085;28;103224;-62
2021/11/05 06:26:24;;;;;;;2.43;2.30;;;;;;;7.32;100.00;98919.16;4939953;28;103136;-64
2021/11/05 06:28:53;;;;;;;2.43;2.23;;;;;;;7.34;100.00;98925.19;4939716;28;102577;-64
2021/11/05 06:31:22;;;;;;;3.43;2.67;;;;;;;7.26;100.00;98927.38;4938587;28;104328;-64
2021/11/05 06:33:50;;;;;;;2.57;2.37;;;;;;;7.25;100.00;98933.56;4922568;28;104794;-64
2021/11/05 06:36:20;;;;;;;3.27;2.90;;;;;;;7.10;100.00;98933.56;4932750;28;103713;-64
2021/11/05 06:38:49;;;;;;;3.97;2.77;;;;;;;7.06;100.00;98940.75;4936760;28;102603;-64
2021/11/05 06:41:18;;;;;;;2.93;2.53;;;;;;;7.25;100.00;98949.31;4955652;28;102705;-64
2021/11/05 06:43:47;;;;;;;2.60;2.40;;;;;;;7.30;100.00;98951.69;4933879;28;103424;-65
2021/11/05 06:46:15;;;;;;;2.33;2.13;;;;;;;7.36;100.00;98960.09;4919329;28;103352;-64
2021/11/05 06:48:43;;;;;;;2.50;2.30;;;;;;;7.44;100.00;98965.78;4937362;28;102977;-64
2021/11/05 06:51:14;;;;;;;4.00;3.13;;;;;;;7.39;100.00;98967.81;4935856;28;102749;-63
2021/11/05 06:53:47;;;;;;;3.57;2.87;;;;;;;7.43;100.00;98969.34;4936220;28;103396;-65
2021/11/05 06:56:15;;;;;;;3.80;3.00;;;;;;;7.49;100.00;98979.50;4938273;28;103270;-65
2021/11/05 06:58:47;;;;;;;3.23;3.03;;;;;;;7.39;100.00;98983.59;4930866;28;102615;-66
2021/11/05 07:01:17;;;;;;;3.57;3.27;;;;;;;7.31;100.00;98988.41;4939695;28;103930;-65
2021/11/05 07:03:45;;;;;;;2.90;2.70;;;;;;;7.30;100.00;98991.97;4933988;28;103837;-65
2021/11/05 07:06:14;;;;;;;3.43;3.13;;;;;;;7.34;100.00;98990.03;4936720;28;103110;-65
2021/11/05 07:08:42;;;;;;;3.60;3.30;;;;;;;7.38;100.00;99000.28;4930639;28;102783;-65
2021/11/05 07:11:12;;;;;;;4.23;3.83;;;;;;;7.11;100.00;99014.91;4937500;28;102679;-65
2021/11/05 07:13:41;;;;;;;4.37;3.60;;;;;;;7.19;100.00;99012.72;4932159;28;103284;-65
2021/11/05 07:16:10;;;;;;;4.13;3.73;;;;;;;7.17;100.00;99022.47;4936872;28;103236;-65
2021/11/05 07:18:39;;;;;;;4.20;3.90;;;;;;;6.99;100.00;99028.69;4923990;28;102688;-63
2021/11/05 07:21:13;;;;;;;6.67;4.10;;;;;;;6.98;100.00;99040.16;4937211;28;102751;-63
2021/11/05 07:23:44;;;;;;;4.00;3.33;;;;;;;6.95;100.00;99053.44;4938417;28;103050;-63
2021/11/05 07:26:16;;;;;;;4.00;3.30;;;;;;;7.03;100.00;99048.63;4935815;28;103241;-63
2021/11/05 07:28:45;;;;;;;4.00;3.63;;;;;;;6.94;100.00;99060.47;4937551;28;102666;-63
2021/11/05 07:31:13;;;;;;;4.13;3.77;;;;;;;6.96;100.00;99065.66;4938518;28;103088;-63
2021/11/05 07:33:42;;;;;;;4.70;4.20;;;;;;;7.05;100.00;99067.78;4936181;28;103315;-64
2021/11/05 07:36:10;;;;;;;3.77;3.47;;;;;;;7.17;100.00;99064.53;4938410;28;103064;-63
2021/11/05 07:38:39;;;;;;;3.73;3.30;;;;;;;7.25;100.00;99083.34;4937590;28;102604;-64
2021/11/05 07:41:09;;;;;;;4.00;3.70;;;;;;;7.23;100.00;99087.84;4937984;28;102813;-64
2021/11/05 07:43:39;;;;;;;3.67;3.37;;;;;;;7.12;100.00;99094.59;4937316;28;103219;-64
2021/11/05 07:46:08;;;;;;;3.77;3.47;;;;;;;7.32;100.00;99103.16;4937711;28;103247;-64
2021/11/05 07:48:37;;;;;;;3.97;3.60;;;;;;;7.28;100.00;99106.84;4952576;28;102744;-64
2021/11/05 07:51:08;;;;;;;3.83;3.53;;;;;;;7.31;100.00;99106.69;4932170;28;103986;-64
2021/11/05 07:53:36;;;;;;;4.00;3.70;;;;;;;7.14;100.00;99113.75;4928286;28;103636;-65
2021/11/05 07:56:05;;;;;;;3.23;3.00;;;;;;;7.44;100.00;99118.25;4937688;28;103268;-64
2021/11/05 07:58:51;;;;;;;2.37;2.17;;;;;;;7.57;100.00;99123.72;4937833;28;102925;-64
2021/11/05 08:01:23;;;;;;;3.17;2.97;;;;;;;7.65;100.00;99123.31;4937140;28;102945;-64
2021/11/05 08:03:51;;;;;;;4.50;3.03;;;;;;;7.35;100.00;99134.53;4936745;28;103482;-64
2021/11/05 08:06:19;;;;;;;2.50;2.30;;;;;;;7.56;100.00;99133.38;4938104;28;103224;-64
2021/11/05 08:08:47;;;;;;;3.13;2.60;;;;;;;7.71;100.00;99136.13;4938319;28;102708;-65
2021/11/05 08:11:16;;;;;;;3.10;2.80;;;;;;;7.68;99.66;99141.56;4953744;28;102770;-64
2021/11/05 08:13:45;;;;;;;2.47;2.27;;;;;;;7.70;99.33;99139.69;4937924;28;103254;-64
2021/11/05 08:16:15;;;;;;;2.07;1.83;;;;;;;7.72;100.00;99148.34;4935010;28;103209;-64
2021/11/05 08:18:44;;;;;;;3.30;3.00;;;;;;;7.80;97.99;99151.41;4937483;28;103097;-63
2021/11/05 08:21:12;;;;;;;4.57;3.00;;;;;;;7.99;97.96;99154.75;4940384;28;102950;-64
2021/11/05 08:23:43;;;;;;;2.97;2.20;;;;;;;8.14;97.41;99156.53;4939945;28;103227;-64
2021/11/05 08:26:12;;;;;;;2.23;2.03;;;;;;;8.29;96.59;99165.38;4938465;28;103200;-64
2021/11/05 08:28:41;;;;;;;2.60;2.40;;;;;;;8.36;96.93;99157.09;4920782;28;102690;-65
2021/11/05 08:31:13;;;;;;;2.10;1.90;;;;;;;8.55;97.35;99163.00;4938175;28;102600;-66
2021/11/05 08:33:47;;;;;;;2.97;2.77;;;;;;;8.60;96.98;99166.22;4936291;28;104482;-65
2021/11/05 08:36:18;;;;;;;2.93;2.53;;;;;;;8.74;95.39;99168.91;4936909;28;103208;-65
2021/11/05 08:38:50;;;;;;;2.50;2.20;;;;;;;8.73;94.82;99169.84;4921642;28;102948;-65
2021/11/05 08:41:22;;;;;;;2.90;2.70;;;;;;;8.71;95.70;99171.72;4934895;28;102716;-65
2021/11/05 08:43:57;;;;;;;2.37;2.00;;;;;;;8.72;90.84;99183.97;4935101;28;103205;-65
2021/11/05 08:46:31;;;;;;;1.87;1.77;;;;;;;8.51;91.73;99185.16;4936408;28;103740;-65
2021/11/05 08:49:09;;;;;;;1.80;1.70;;;;;;;8.78;92.11;99188.03;4937563;28;102790;-65
2021/11/05 08:51:41;;;;;;;2.17;1.97;;;;;;;8.85;90.96;99188.50;4932733;28;102840;-65
2021/11/05 08:54:09;;;;;;;3.23;2.10;;;;;;;8.73;91.13;99196.19;4951303;28;104049;-65
2021/11/05 08:56:39;;;;;;;7.40;2.80;;;;;;;8.74;92.83;99205.78;4935606;28;103106;-65
2021/11/05 08:59:15;;;;;;;1.97;1.70;;;;;;;8.76;92.51;99202.25;4938021;28;102591;-67
2021/11/05 09:01:44;;;;;;;2.10;1.90;;;;;;;8.62;92.06;99211.75;4938952;28;102726;-64
2021/11/05 09:04:14;;;;;;;1.60;1.50;;;;;;;8.82;92.02;99207.13;4938390;28;104225;-64
2021/11/05 09:06:43;;;;;;;3.13;1.70;;;;;;;8.96;91.50;99209.81;4940333;28;103191;-65
2021/11/05 09:09:11;;;;;;;2.30;1.60;;;;;;;8.80;91.28;99212.50;4939876;28;103934;-65
2021/11/05 09:11:44;;;;;;;1.50;1.40;;;;;;;9.05;91.47;99225.13;4922736;28;102707;-64
2021/11/05 09:14:12;;;;;;;2.10;1.90;;;;;;;9.08;89.73;99219.66;4938498;28;103469;-65
2021/11/05 09:16:51;;;;;;;2.03;1.83;;;;;;;9.42;89.09;99224.66;4954014;28;103367;-66
2021/11/05 09:19:21;;;;;;;2.67;1.67;;;;;;;9.47;86.40;99219.97;4939697;28;102743;-64
2021/11/05 09:21:49;;;;;;;2.50;1.50;;;;;;;9.66;88.24;99228.47;4940197;28;103894;-65
2021/11/05 09:24:18;;;;;;;3.00;1.83;;;;;;;9.63;89.02;99231.28;4941101;28;103249;-66
2021/11/05 09:26:46;;;;;;;3.57;1.70;;;;;;;9.87;88.22;99226.31;4939578;28;103095;-64
2021/11/05 09:29:17;;;;;;;2.77;2.00;;;;;;;9.98;87.54;99223.03;4938757;28;102977;-66
2021/11/05 09:31:46;;;;;;;2.20;1.97;;;;;;;9.87;86.51;99235.09;4939089;28;102642;-66
2021/11/05 09:34:15;;;;;;;1.73;1.33;;;;;;;10.24;86.92;99238.13;4940270;28;105110;-63
2021/11/05 09:36:44;;;;;;;2.13;1.73;;;;;;;9.95;85.70;99242.53;4941589;28;103161;-62
2021/11/05 09:39:12;;;;;;;2.40;1.70;;;;;;;10.20;86.58;99242.75;4940650;28;102667;-62
2021/11/05 09:41:41;;;;;;;2.07;1.87;;;;;;;10.06;86.48;99250.66;4920713;28;102871;-63
2021/11/05 09:44:09;;;;;;;5.13;2.73;;;;;;;9.69;86.43;99251.16;4922744;28;103014;-66
2021/11/05 09:46:38;;;;;;;3.33;2.93;;;;;;;9.55;86.58;99261.69;4940972;28;103194;-66
2021/11/05 09:49:10;;;;;;;3.00;2.70;;;;;;;9.80;87.66;99262.78;4936061;28;103379;-64
2021/11/05 09:51:38;;;;;;;5.40;3.53;;;;;;;9.64;87.58;99264.66;4940994;28;102682;-65
2021/11/05 09:54:18;;;;;;;3.40;3.10;;;;;;;9.67;87.30;99272.38;4938394;28;104613;-65
2021/11/05 09:56:49;;;;;;;3.70;3.23;;;;;;;9.60;88.10;99281.59;4938861;28;103798;-65
2021/11/05 09:59:17;;;;;;;3.50;3.20;;;;;;;9.70;88.50;99277.50;4940382;28;103056;-64
2021/11/05 10:01:46;;;;;;;3.20;2.90;;;;;;;9.93;87.85;99272.63;4939720;28;102844;-64
2021/11/05 10:04:15;;;;;;;4.20;3.80;;;;;;;9.45;88.58;99286.94;4939414;28;103245;-66
2021/11/05 10:07:00;;;;;;;4.10;3.73;;;;;;;9.27;90.37;99283.56;4920571;28;103312;-64
2021/11/05 10:09:35;;;;;;;4.87;4.30;;;;;;;9.22;88.64;99285.63;4955987;28;102679;-64
2021/11/05 10:12:08;;;;;;;5.67;4.07;;;;;;;9.01;89.97;99297.41;4938012;28;102897;-65
2021/11/05 10:14:38;;;;;;;4.40;4.00;;;;;;;9.29;89.80;99300.16;4939669;28;103275;-64
2021/11/05 10:17:08;;;;;;;4.50;4.10;;;;;;;9.12;90.25;99305.56;4938233;28;103282;-64
2021/11/05 10:19:57;;;;;;;5.37;4.37;;;;;;;8.82;91.55;99302.84;4940374;28;102660;-67
2021/11/05 10:22:46;;;;;;;5.10;4.50;;;;;;;9.05;90.99;99309.47;4939718;28;102723;-64
2021/11/05 10:25:28;;;;;;;5.80;4.60;;;;;;;9.11;91.98;99306.47;4939065;28;103256;-65
2021/11/05 10:28:09;;;;;;;5.67;5.17;;;;;;;9.10;92.68;99307.41;4940198;28;102996;-66
2021/11/05 10:30:40;;;;;;;5.60;4.33;;;;;;;9.15;90.73;99310.66;4940064;28;102509;-64
2021/11/05 10:33:08;;;;;;;5.23;4.77;;;;;;;9.02;90.43;99304.34;4939896;28;102657;-66
2021/11/05 10:35:39;;;;;;;4.40;4.00;;;;;;;9.23;93.13;99308.44;4938760;28;103502;-64
2021/11/05 10:38:10;;;;;;;4.93;4.47;;;;;;;9.43;90.25;99302.81;4937915;28;103209;-65
2021/11/05 10:40:42;;;;;;;5.27;4.77;;;;;;;9.55;89.84;99309.19;4922884;28;102553;-65
2021/11/05 10:43:14;;;;;;;6.00;4.73;;;;;;;9.83;87.91;99310.09;4939058;28;102580;-66
2021/11/05 10:45:42;;;;;;;4.83;4.30;;;;;;;9.89;88.12;99303.63;4939506;28;103451;-66
2021/11/05 10:48:15;;;;;;;5.00;4.60;;;;;;;9.81;90.00;99308.50;4939827;28;103243;-66
2021/11/05 10:50:53;;;;;;;6.70;4.77;;;;;;;10.19;86.54;99314.97;4940007;28;102999;-65
2021/11/05 10:53:23;;;;;;;5.80;5.30;;;;;;;9.73;87.62;99314.25;4939599;28;102748;-66
2021/11/05 10:55:55;;;;;;;5.83;5.33;;;;;;;10.14;88.03;99310.94;4939759;28;103696;-66
2021/11/05 10:58:28;;;;;;;5.37;4.87;;;;;;;10.00;88.56;99310.88;4939819;28;103258;-64
2021/11/05 11:00:59;;;;;;;5.07;4.67;;;;;;;10.09;88.36;99311.19;4937654;28;103165;-66
2021/11/05 11:03:32;;;;;;;5.90;5.40;;;;;;;10.20;87.83;99315.84;4939860;28;102629;-65
2021/11/05 11:06:04;;;;;;;5.77;5.23;;;;;;;9.92;85.07;99319.28;4939168;28;103348;-65
2021/11/05 11:08:38;;;;;;;5.17;4.73;;;;;;;10.53;84.99;99316.41;4938920;28;103212;-64
2021/11/05 11:11:22;;;;;;;5.93;5.43;;;;;;;10.26;82.69;99321.59;4940215;28;102842;-64
2021/11/05 11:13:51;;;;;;;6.17;5.50;;;;;;;10.57;83.39;99323.19;4939327;28;102807;-63
2021/11/05 11:16:27;;;;;;;4.73;4.23;;;;;;;10.96;81.62;99320.69;4937675;28;103359;-71
2021/11/05 11:19:00;;;;;;;4.50;4.10;;;;;;;11.21;81.21;99324.38;4938615;28;103231;-63
2021/11/05 11:21:31;;;;;;;4.03;3.63;;;;;;;11.04;79.14;99330.75;4934616;28;102665;-63
2021/11/05 11:24:00;;;;;;;4.13;3.60;;;;;;;11.19;77.85;99339.50;4938814;28;102831;-63
2021/11/05 11:26:34;;;;;;;6.33;5.70;;;;;;;11.23;78.18;99325.16;4937373;28;103402;-63
2021/11/05 11:29:07;;;;;;;7.03;6.27;;;;;;;10.77;79.51;99330.72;4937592;28;103245;-65
2021/11/05 11:31:37;;;;;;;6.03;5.53;;;;;;;10.93;80.88;99326.16;4939404;28;102785;-64
2021/11/05 11:34:07;;;;;;;6.70;6.10;;;;;;;10.66;80.83;99327.91;4938540;28;102604;-63
2021/11/05 11:36:39;;;;;;;6.33;5.73;;;;;;;10.74;78.23;99333.56;4936835;28;104331;-64
2021/11/05 11:39:10;;;;;;;6.20;5.70;;;;;;;10.93;79.58;99339.38;4938754;28;103275;-65
2021/11/05 11:41:41;;;;;;;6.07;5.57;;;;;;;11.22;79.56;99328.72;4953382;28;103034;-65
2021/11/05 11:44:13;;;;;;;5.90;5.40;;;;;;;11.44;77.93;99326.38;4939053;28;104794;-66